EGUL

RAF Lakenheath Airport

Lakenheath, United Kingdom
METAR EGUL 221656Z AUTO 25013KT 9999 BKN050 19/09 A2974 RMK AO2 RAB1556E07 SLP074 P0000 T01920091 $
Observed Flight Rules
Apr-22 @ 16:56 UTC (an hour ago) Visual Flight Rules
Wind Visibility Clouds
250° at 13 knots 10,000+ meters
  • Broken at 5,000' AGL
Temperatures Readings Precipitation
Current 19°C / 66°F
Dewpoint 9°C / 48°F
Humidity 52%
Altimeter 29.74" Hg
Pressure 1007.4 hPa
Elevation 10
Current Rain 0.005
METAR EGUL 221656Z AUTO 25013KT 9999 BKN050 19/09 A2974 RMK AO2 RAB1556E07 SLP074 P0000 T01920091 $
Observed Flight Rules
Apr-22 @ 16:56 UTC
(an hour ago)
VFR
Wind Visibility
250° at 13 knots 10,000+ meters
Clouds
  • Broken at 5,000' AGL
Temperature Dewpoint
19°C / 66°F 9°C / 48°F
Humidity Altimeter Pressure
52% 29.74" Hg 1007.4 hPa
Current Rain
0.005